sensor_id;sensor_type;location;lat;lon;timestamp;temperature;humidity
5508;DHT22;2776;51.046;6.772;2023-04-15T00:00:20;6.10;99.90
5508;DHT22;2776;51.046;6.772;2023-04-15T00:02:46;6.10;99.90
5508;DHT22;2776;51.046;6.772;2023-04-15T00:05:14;6.10;99.90
5508;DHT22;2776;51.046;6.772;2023-04-15T00:07:42;6.10;99.90
5508;DHT22;2776;51.046;6.772;2023-04-15T00:10:10;6.10;99.90
5508;DHT22;2776;51.046;6.772;2023-04-15T00:12:37;6.00;99.90
5508;DHT22;2776;51.046;6.772;2023-04-15T00:15:04;6.00;99.90
5508;DHT22;2776;51.046;6.772;2023-04-15T00:17:32;5.90;99.90
5508;DHT22;2776;51.046;6.772;2023-04-15T00:19:59;5.80;99.90
5508;DHT22;2776;51.046;6.772;2023-04-15T00:22:26;5.80;99.90
5508;DHT22;2776;51.046;6.772;2023-04-15T00:24:54;5.70;99.90
5508;DHT22;2776;51.046;6.772;2023-04-15T00:27:21;5.60;99.90
5508;DHT22;2776;51.046;6.772;2023-04-15T00:29:47;5.60;99.90
5508;DHT22;2776;51.046;6.772;2023-04-15T00:32:14;5.60;99.90
5508;DHT22;2776;51.046;6.772;2023-04-15T00:34:41;5.60;99.90
5508;DHT22;2776;51.046;6.772;2023-04-15T00:37:08;5.60;99.90
5508;DHT22;2776;51.046;6.772;2023-04-15T00:39:35;5.50;99.90
5508;DHT22;2776;51.046;6.772;2023-04-15T00:42:03;5.40;99.90
5508;DHT22;2776;51.046;6.772;2023-04-15T00:44:30;5.40;99.90
5508;DHT22;2776;51.046;6.772;2023-04-15T00:46:58;5.30;99.90
5508;DHT22;2776;51.046;6.772;2023-04-15T00:49:25;5.30;99.90
5508;DHT22;2776;51.046;6.772;2023-04-15T00:51:53;5.30;99.90
5508;DHT22;2776;51.046;6.772;2023-04-15T00:54:20;5.20;99.90
5508;DHT22;2776;51.046;6.772;2023-04-15T00:56:46;5.20;99.90
5508;DHT22;2776;51.046;6.772;2023-04-15T00:59:16;5.10;99.90
5508;DHT22;2776;51.046;6.772;2023-04-15T01:01:44;5.10;99.90
5508;DHT22;2776;51.046;6.772;2023-04-15T01:04:11;5.10;99.90
5508;DHT22;2776;51.046;6.772;2023-04-15T01:06:38;5.00;99.90
5508;DHT22;2776;51.046;6.772;2023-04-15T01:09:05;5.00;99.90
5508;DHT22;2776;51.046;6.772;2023-04-15T01:11:32;4.90;99.90
5508;DHT22;2776;51.046;6.772;2023-04-15T01:13:59;4.90;99.90
5508;DHT22;2776;51.046;6.772;2023-04-15T01:16:27;4.80;99.90
5508;DHT22;2776;51.046;6.772;2023-04-15T01:18:54;4.90;99.90
5508;DHT22;2776;51.046;6.772;2023-04-15T01:21:22;4.90;99.90
5508;DHT22;2776;51.046;6.772;2023-04-15T01:23:50;4.90;99.90
5508;DHT22;2776;51.046;6.772;2023-04-15T01:26:19;4.90;99.90
5508;DHT22;2776;51.046;6.772;2023-04-15T01:28:47;4.90;99.90
5508;DHT22;2776;51.046;6.772;2023-04-15T01:31:15;4.90;99.90
5508;DHT22;2776;51.046;6.772;2023-04-15T01:33:42;4.90;99.90
5508;DHT22;2776;51.046;6.772;2023-04-15T01:36:09;5.00;99.90
5508;DHT22;2776;51.046;6.772;2023-04-15T01:38:36;4.90;99.90
5508;DHT22;2776;51.046;6.772;2023-04-15T01:41:03;4.90;99.90
5508;DHT22;2776;51.046;6.772;2023-04-15T01:43:33;4.80;99.90
5508;DHT22;2776;51.046;6.772;2023-04-15T01:46:00;4.80;99.90
5508;DHT22;2776;51.046;6.772;2023-04-15T01:48:27;4.70;99.90
5508;DHT22;2776;51.046;6.772;2023-04-15T01:50:54;4.70;99.90
5508;DHT22;2776;51.046;6.772;2023-04-15T01:53:22;4.70;99.90
5508;DHT22;2776;51.046;6.772;2023-04-15T01:55:49;4.70;99.90
5508;DHT22;2776;51.046;6.772;2023-04-15T01:58:17;4.70;99.90
5508;DHT22;2776;51.046;6.772;2023-04-15T02:00:46;4.60;99.90
5508;DHT22;2776;51.046;6.772;2023-04-15T02:03:13;4.50;99.90
5508;DHT22;2776;51.046;6.772;2023-04-15T02:05:39;4.40;99.90
5508;DHT22;2776;51.046;6.772;2023-04-15T02:08:07;4.40;99.90
5508;DHT22;2776;51.046;6.772;2023-04-15T02:10:34;4.40;99.90
5508;DHT22;2776;51.046;6.772;2023-04-15T02:13:01;4.40;99.90
5508;DHT22;2776;51.046;6.772;2023-04-15T02:15:27;4.40;99.90
5508;DHT22;2776;51.046;6.772;2023-04-15T02:17:56;4.40;99.90
5508;DHT22;2776;51.046;6.772;2023-04-15T02:20:23;4.40;99.90
5508;DHT22;2776;51.046;6.772;2023-04-15T02:22:50;4.40;99.90
5508;DHT22;2776;51.046;6.772;2023-04-15T02:25:17;4.50;99.90
5508;DHT22;2776;51.046;6.772;2023-04-15T02:27:45;4.50;99.90
5508;DHT22;2776;51.046;6.772;2023-04-15T02:30:11;4.50;99.90
5508;DHT22;2776;51.046;6.772;2023-04-15T02:32:39;4.50;99.90
5508;DHT22;2776;51.046;6.772;2023-04-15T02:35:09;4.40;99.90
5508;DHT22;2776;51.046;6.772;2023-04-15T02:37:37;4.30;99.90
5508;DHT22;2776;51.046;6.772;2023-04-15T02:40:08;4.30;99.90
5508;DHT22;2776;51.046;6.772;2023-04-15T02:42:37;4.30;99.90
5508;DHT22;2776;51.046;6.772;2023-04-15T02:45:04;4.20;99.90
5508;DHT22;2776;51.046;6.772;2023-04-15T02:47:31;4.20;99.90
5508;DHT22;2776;51.046;6.772;2023-04-15T02:49:58;4.10;99.90
5508;DHT22;2776;51.046;6.772;2023-04-15T02:52:27;4.00;99.90
5508;DHT22;2776;51.046;6.772;2023-04-15T02:54:54;4.00;99.90
5508;DHT22;2776;51.046;6.772;2023-04-15T02:57:25;4.00;99.90
5508;DHT22;2776;51.046;6.772;2023-04-15T02:59:51;4.00;99.90
5508;DHT22;2776;51.046;6.772;2023-04-15T03:02:18;4.00;99.90
5508;DHT22;2776;51.046;6.772;2023-04-15T03:04:45;3.90;99.90
5508;DHT22;2776;51.046;6.772;2023-04-15T03:07:12;4.00;99.90
5508;DHT22;2776;51.046;6.772;2023-04-15T03:09:40;3.90;99.90
5508;DHT22;2776;51.046;6.772;2023-04-15T03:12:06;3.90;99.90
5508;DHT22;2776;51.046;6.772;2023-04-15T03:14:33;3.90;99.90
5508;DHT22;2776;51.046;6.772;2023-04-15T03:17:00;3.80;99.90
5508;DHT22;2776;51.046;6.772;2023-04-15T03:19:27;3.80;99.90
5508;DHT22;2776;51.046;6.772;2023-04-15T03:21:54;3.80;99.90
5508;DHT22;2776;51.046;6.772;2023-04-15T03:24:20;3.70;99.90
5508;DHT22;2776;51.046;6.772;2023-04-15T03:26:48;3.80;99.90
5508;DHT22;2776;51.046;6.772;2023-04-15T03:29:15;3.80;99.90
5508;DHT22;2776;51.046;6.772;2023-04-15T03:31:42;3.80;99.90
5508;DHT22;2776;51.046;6.772;2023-04-15T03:34:09;3.80;99.90
5508;DHT22;2776;51.046;6.772;2023-04-15T03:36:36;3.70;99.90
5508;DHT22;2776;51.046;6.772;2023-04-15T03:39:02;3.70;99.90
5508;DHT22;2776;51.046;6.772;2023-04-15T03:41:30;3.70;99.90
5508;DHT22;2776;51.046;6.772;2023-04-15T03:43:58;3.50;99.90
5508;DHT22;2776;51.046;6.772;2023-04-15T03:46:25;3.50;99.90
5508;DHT22;2776;51.046;6.772;2023-04-15T03:48:52;3.50;99.90
5508;DHT22;2776;51.046;6.772;2023-04-15T03:51:19;3.50;99.90
5508;DHT22;2776;51.046;6.772;2023-04-15T03:53:45;3.40;99.90
5508;DHT22;2776;51.046;6.772;2023-04-15T03:56:12;3.30;99.90
5508;DHT22;2776;51.046;6.772;2023-04-15T03:58:39;3.40;99.90
5508;DHT22;2776;51.046;6.772;2023-04-15T04:01:07;3.40;99.90
5508;DHT22;2776;51.046;6.772;2023-04-15T04:03:34;3.30;99.90
5508;DHT22;2776;51.046;6.772;2023-04-15T04:06:01;3.30;99.90
5508;DHT22;2776;51.046;6.772;2023-04-15T04:08:28;3.30;99.90
5508;DHT22;2776;51.046;6.772;2023-04-15T04:10:55;3.30;99.90
5508;DHT22;2776;51.046;6.772;2023-04-15T04:13:21;3.30;99.90
5508;DHT22;2776;51.046;6.772;2023-04-15T04:15:48;3.30;99.90
5508;DHT22;2776;51.046;6.772;2023-04-15T04:18:16;3.30;99.90
5508;DHT22;2776;51.046;6.772;2023-04-15T04:20:43;3.30;99.90
5508;DHT22;2776;51.046;6.772;2023-04-15T04:23:10;3.30;99.90
5508;DHT22;2776;51.046;6.772;2023-04-15T04:25:37;3.30;99.90
5508;DHT22;2776;51.046;6.772;2023-04-15T04:28:03;3.30;99.90
5508;DHT22;2776;51.046;6.772;2023-04-15T04:30:30;3.40;99.90
5508;DHT22;2776;51.046;6.772;2023-04-15T04:32:57;3.40;99.90
5508;DHT22;2776;51.046;6.772;2023-04-15T04:35:25;3.40;99.90
5508;DHT22;2776;51.046;6.772;2023-04-15T04:37:52;3.40;99.90
5508;DHT22;2776;51.046;6.772;2023-04-15T04:40:19;3.40;99.90
5508;DHT22;2776;51.046;6.772;2023-04-15T04:42:46;3.30;99.90
5508;DHT22;2776;51.046;6.772;2023-04-15T04:45:13;3.30;99.90
5508;DHT22;2776;51.046;6.772;2023-04-15T04:47:40;3.30;99.90
5508;DHT22;2776;51.046;6.772;2023-04-15T04:50:07;3.30;99.90
5508;DHT22;2776;51.046;6.772;2023-04-15T04:52:36;3.20;99.90
5508;DHT22;2776;51.046;6.772;2023-04-15T04:55:03;3.20;99.90
5508;DHT22;2776;51.046;6.772;2023-04-15T04:57:30;3.10;99.90
5508;DHT22;2776;51.046;6.772;2023-04-15T04:59:56;3.20;99.90
5508;DHT22;2776;51.046;6.772;2023-04-15T05:02:23;3.20;99.90
5508;DHT22;2776;51.046;6.772;2023-04-15T05:04:51;3.20;99.90
5508;DHT22;2776;51.046;6.772;2023-04-15T05:07:18;3.30;99.90
5508;DHT22;2776;51.046;6.772;2023-04-15T05:09:47;3.40;99.90
5508;DHT22;2776;51.046;6.772;2023-04-15T05:12:14;3.50;99.90
5508;DHT22;2776;51.046;6.772;2023-04-15T05:14:40;3.50;99.90
5508;DHT22;2776;51.046;6.772;2023-04-15T05:17:07;3.60;99.90
5508;DHT22;2776;51.046;6.772;2023-04-15T05:19:34;3.60;99.90
5508;DHT22;2776;51.046;6.772;2023-04-15T05:22:01;3.50;99.90
5508;DHT22;2776;51.046;6.772;2023-04-15T05:24:27;3.60;99.90
5508;DHT22;2776;51.046;6.772;2023-04-15T05:26:55;3.60;99.90
5508;DHT22;2776;51.046;6.772;2023-04-15T05:29:22;3.80;99.90
5508;DHT22;2776;51.046;6.772;2023-04-15T05:31:49;4.00;99.90
5508;DHT22;2776;51.046;6.772;2023-04-15T05:34:16;4.20;99.90
5508;DHT22;2776;51.046;6.772;2023-04-15T05:36:43;4.50;99.90
5508;DHT22;2776;51.046;6.772;2023-04-15T05:39:09;4.70;99.90
5508;DHT22;2776;51.046;6.772;2023-04-15T05:41:36;5.00;99.90
5508;DHT22;2776;51.046;6.772;2023-04-15T05:44:04;5.30;99.90
5508;DHT22;2776;51.046;6.772;2023-04-15T05:46:31;5.70;99.90
5508;DHT22;2776;51.046;6.772;2023-04-15T05:48:58;6.20;99.90
5508;DHT22;2776;51.046;6.772;2023-04-15T05:51:25;6.60;99.90
5508;DHT22;2776;51.046;6.772;2023-04-15T05:53:51;7.60;99.90
5508;DHT22;2776;51.046;6.772;2023-04-15T05:56:18;8.80;99.90
5508;DHT22;2776;51.046;6.772;2023-04-15T05:58:45;9.90;99.90
5508;DHT22;2776;51.046;6.772;2023-04-15T06:01:13;10.90;99.90
5508;DHT22;2776;51.046;6.772;2023-04-15T06:03:41;12.00;99.90
5508;DHT22;2776;51.046;6.772;2023-04-15T06:06:08;12.80;99.90
5508;DHT22;2776;51.046;6.772;2023-04-15T06:08:35;13.70;99.90
5508;DHT22;2776;51.046;6.772;2023-04-15T06:11:01;14.40;99.30
5508;DHT22;2776;51.046;6.772;2023-04-15T06:13:28;14.90;96.20
5508;DHT22;2776;51.046;6.772;2023-04-15T06:15:55;15.30;93.40
5508;DHT22;2776;51.046;6.772;2023-04-15T06:18:23;15.60;90.80
5508;DHT22;2776;51.046;6.772;2023-04-15T06:20:50;15.90;86.50
5508;DHT22;2776;51.046;6.772;2023-04-15T06:23:17;15.90;83.80
5508;DHT22;2776;51.046;6.772;2023-04-15T06:25:43;15.80;82.00
5508;DHT22;2776;51.046;6.772;2023-04-15T06:28:10;15.60;82.90
5508;DHT22;2776;51.046;6.772;2023-04-15T06:30:37;15.30;85.20
5508;DHT22;2776;51.046;6.772;2023-04-15T06:33:04;15.00;90.00
5508;DHT22;2776;51.046;6.772;2023-04-15T06:35:33;14.70;91.20
5508;DHT22;2776;51.046;6.772;2023-04-15T06:37:59;14.40;91.90
5508;DHT22;2776;51.046;6.772;2023-04-15T06:40:26;14.10;94.40
5508;DHT22;2776;51.046;6.772;2023-04-15T06:42:54;13.90;96.10
5508;DHT22;2776;51.046;6.772;2023-04-15T06:45:20;13.70;99.00
5508;DHT22;2776;51.046;6.772;2023-04-15T06:47:47;13.60;99.90
5508;DHT22;2776;51.046;6.772;2023-04-15T06:50:14;13.70;99.90
5508;DHT22;2776;51.046;6.772;2023-04-15T06:52:42;13.70;99.90
5508;DHT22;2776;51.046;6.772;2023-04-15T06:55:09;13.80;99.90
5508;DHT22;2776;51.046;6.772;2023-04-15T06:57:36;14.00;99.90
5508;DHT22;2776;51.046;6.772;2023-04-15T07:00:03;14.20;99.90
5508;DHT22;2776;51.046;6.772;2023-04-15T07:02:30;14.10;99.90
5508;DHT22;2776;51.046;6.772;2023-04-15T07:04:57;14.30;99.90
5508;DHT22;2776;51.046;6.772;2023-04-15T07:07:23;14.40;99.90
5508;DHT22;2776;51.046;6.772;2023-04-15T07:09:52;14.40;99.90
5508;DHT22;2776;51.046;6.772;2023-04-15T07:12:19;14.30;99.90
5508;DHT22;2776;51.046;6.772;2023-04-15T07:14:46;14.50;99.90
5508;DHT22;2776;51.046;6.772;2023-04-15T07:17:14;14.60;99.90
5508;DHT22;2776;51.046;6.772;2023-04-15T07:19:40;14.80;99.90
5508;DHT22;2776;51.046;6.772;2023-04-15T07:22:07;14.90;99.70
5508;DHT22;2776;51.046;6.772;2023-04-15T07:24:34;14.70;99.90
5508;DHT22;2776;51.046;6.772;2023-04-15T07:27:02;14.60;99.90
5508;DHT22;2776;51.046;6.772;2023-04-15T07:29:29;14.60;99.90
5508;DHT22;2776;51.046;6.772;2023-04-15T07:31:55;14.60;99.90
5508;DHT22;2776;51.046;6.772;2023-04-15T07:34:22;14.80;99.90
5508;DHT22;2776;51.046;6.772;2023-04-15T07:36:49;14.90;99.70
5508;DHT22;2776;51.046;6.772;2023-04-15T07:39:16;15.10;99.90
5508;DHT22;2776;51.046;6.772;2023-04-15T07:41:43;15.20;99.90
5508;DHT22;2776;51.046;6.772;2023-04-15T07:44:12;15.40;99.90
5508;DHT22;2776;51.046;6.772;2023-04-15T07:46:39;15.80;97.60
5508;DHT22;2776;51.046;6.772;2023-04-15T07:49:06;16.20;96.40
5508;DHT22;2776;51.046;6.772;2023-04-15T07:51:33;16.40;94.20
5508;DHT22;2776;51.046;6.772;2023-04-15T07:53:59;16.20;90.20
5508;DHT22;2776;51.046;6.772;2023-04-15T07:56:28;16.30;92.30
5508;DHT22;2776;51.046;6.772;2023-04-15T07:58:55;16.50;88.50
5508;DHT22;2776;51.046;6.772;2023-04-15T08:01:24;16.30;86.50
5508;DHT22;2776;51.046;6.772;2023-04-15T08:03:51;16.10;85.90
5508;DHT22;2776;51.046;6.772;2023-04-15T08:06:17;16.00;92.00
5508;DHT22;2776;51.046;6.772;2023-04-15T08:08:44;16.00;87.30
5508;DHT22;2776;51.046;6.772;2023-04-15T08:11:11;15.70;84.30
5508;DHT22;2776;51.046;6.772;2023-04-15T08:13:38;15.40;86.60
5508;DHT22;2776;51.046;6.772;2023-04-15T08:16:15;15.20;84.70
5508;DHT22;2776;51.046;6.772;2023-04-15T08:18:44;15.10;83.00
5508;DHT22;2776;51.046;6.772;2023-04-15T08:21:11;14.90;84.40
5508;DHT22;2776;51.046;6.772;2023-04-15T08:23:38;14.90;84.00
5508;DHT22;2776;51.046;6.772;2023-04-15T08:26:04;15.00;85.70
5508;DHT22;2776;51.046;6.772;2023-04-15T08:28:32;15.00;85.30
5508;DHT22;2776;51.046;6.772;2023-04-15T08:30:58;15.00;86.80
5508;DHT22;2776;51.046;6.772;2023-04-15T08:33:25;14.90;83.10
5508;DHT22;2776;51.046;6.772;2023-04-15T08:35:54;14.80;86.50
5508;DHT22;2776;51.046;6.772;2023-04-15T08:38:22;14.80;90.20
5508;DHT22;2776;51.046;6.772;2023-04-15T08:40:49;14.80;90.10
5508;DHT22;2776;51.046;6.772;2023-04-15T08:43:20;15.00;91.00
5508;DHT22;2776;51.046;6.772;2023-04-15T08:45:49;15.10;84.30
5508;DHT22;2776;51.046;6.772;2023-04-15T08:48:17;15.30;80.30
5508;DHT22;2776;51.046;6.772;2023-04-15T08:50:45;15.50;78.80
5508;DHT22;2776;51.046;6.772;2023-04-15T08:53:14;15.80;85.00
5508;DHT22;2776;51.046;6.772;2023-04-15T08:55:43;16.00;76.90
5508;DHT22;2776;51.046;6.772;2023-04-15T08:58:11;16.00;77.10
5508;DHT22;2776;51.046;6.772;2023-04-15T09:00:38;16.20;76.20
5508;DHT22;2776;51.046;6.772;2023-04-15T09:03:06;16.00;73.00
5508;DHT22;2776;51.046;6.772;2023-04-15T09:05:33;16.10;75.20
5508;DHT22;2776;51.046;6.772;2023-04-15T09:08:01;16.00;71.80
5508;DHT22;2776;51.046;6.772;2023-04-15T09:10:29;16.00;72.20
5508;DHT22;2776;51.046;6.772;2023-04-15T09:12:57;16.00;74.10
5508;DHT22;2776;51.046;6.772;2023-04-15T09:15:24;16.00;72.70
5508;DHT22;2776;51.046;6.772;2023-04-15T09:17:52;16.00;75.30
5508;DHT22;2776;51.046;6.772;2023-04-15T09:20:19;16.10;75.60
5508;DHT22;2776;51.046;6.772;2023-04-15T09:22:47;15.80;71.90
5508;DHT22;2776;51.046;6.772;2023-04-15T09:25:28;15.60;72.80
5508;DHT22;2776;51.046;6.772;2023-04-15T09:27:56;15.70;75.70
5508;DHT22;2776;51.046;6.772;2023-04-15T09:30:24;15.90;75.80
5508;DHT22;2776;51.046;6.772;2023-04-15T09:32:52;16.00;74.90
5508;DHT22;2776;51.046;6.772;2023-04-15T09:35:20;16.10;75.60
5508;DHT22;2776;51.046;6.772;2023-04-15T09:37:47;16.00;76.80
5508;DHT22;2776;51.046;6.772;2023-04-15T09:40:31;16.10;74.70
5508;DHT22;2776;51.046;6.772;2023-04-15T09:42:58;16.20;76.50
5508;DHT22;2776;51.046;6.772;2023-04-15T09:45:26;16.20;74.10
5508;DHT22;2776;51.046;6.772;2023-04-15T09:47:53;16.30;75.00
5508;DHT22;2776;51.046;6.772;2023-04-15T09:50:20;16.20;70.10
5508;DHT22;2776;51.046;6.772;2023-04-15T09:52:47;16.10;71.10
5508;DHT22;2776;51.046;6.772;2023-04-15T09:55:14;15.90;73.40
5508;DHT22;2776;51.046;6.772;2023-04-15T09:57:43;15.80;73.40
5508;DHT22;2776;51.046;6.772;2023-04-15T10:00:12;15.70;73.50
5508;DHT22;2776;51.046;6.772;2023-04-15T10:02:40;15.70;72.60
5508;DHT22;2776;51.046;6.772;2023-04-15T10:05:09;15.50;73.00
5508;DHT22;2776;51.046;6.772;2023-04-15T10:07:37;15.60;76.60
5508;DHT22;2776;51.046;6.772;2023-04-15T10:10:06;15.60;81.70
5508;DHT22;2776;51.046;6.772;2023-04-15T10:12:36;15.80;81.50
5508;DHT22;2776;51.046;6.772;2023-04-15T10:15:05;15.70;78.30
5508;DHT22;2776;51.046;6.772;2023-04-15T10:17:32;15.70;78.30
5508;DHT22;2776;51.046;6.772;2023-04-15T10:20:02;15.80;76.60
5508;DHT22;2776;51.046;6.772;2023-04-15T10:22:29;15.80;75.00
5508;DHT22;2776;51.046;6.772;2023-04-15T10:24:58;15.70;77.10
5508;DHT22;2776;51.046;6.772;2023-04-15T10:27:26;15.60;78.10
5508;DHT22;2776;51.046;6.772;2023-04-15T10:29:53;15.10;75.40
5508;DHT22;2776;51.046;6.772;2023-04-15T10:32:23;15.00;78.30
5508;DHT22;2776;51.046;6.772;2023-04-15T10:34:51;14.80;78.70
5508;DHT22;2776;51.046;6.772;2023-04-15T10:37:20;14.80;81.40
5508;DHT22;2776;51.046;6.772;2023-04-15T10:39:47;14.90;80.50
5508;DHT22;2776;51.046;6.772;2023-04-15T10:42:16;15.00;87.40
5508;DHT22;2776;51.046;6.772;2023-04-15T10:44:44;15.20;84.80
5508;DHT22;2776;51.046;6.772;2023-04-15T10:47:13;15.30;83.50
5508;DHT22;2776;51.046;6.772;2023-04-15T10:49:46;15.40;81.30
5508;DHT22;2776;51.046;6.772;2023-04-15T10:52:14;15.40;80.60
5508;DHT22;2776;51.046;6.772;2023-04-15T10:54:42;15.40;85.30
5508;DHT22;2776;51.046;6.772;2023-04-15T10:57:14;15.50;83.60
5508;DHT22;2776;51.046;6.772;2023-04-15T11:00:02;15.70;84.00
5508;DHT22;2776;51.046;6.772;2023-04-15T11:02:44;15.90;83.90
5508;DHT22;2776;51.046;6.772;2023-04-15T11:05:13;15.80;83.70
5508;DHT22;2776;51.046;6.772;2023-04-15T11:07:48;15.80;84.10
5508;DHT22;2776;51.046;6.772;2023-04-15T11:13:17;15.40;85.70
5508;DHT22;2776;51.046;6.772;2023-04-15T11:15:46;15.40;85.00
5508;DHT22;2776;51.046;6.772;2023-04-15T11:18:15;15.30;86.90
5508;DHT22;2776;51.046;6.772;2023-04-15T11:20:45;15.20;86.80
5508;DHT22;2776;51.046;6.772;2023-04-15T11:23:13;15.10;86.40
5508;DHT22;2776;51.046;6.772;2023-04-15T11:25:40;14.90;90.30
5508;DHT22;2776;51.046;6.772;2023-04-15T11:28:07;14.90;90.10
5508;DHT22;2776;51.046;6.772;2023-04-15T11:30:35;15.00;90.50
5508;DHT22;2776;51.046;6.772;2023-04-15T11:33:04;14.90;91.80
5508;DHT22;2776;51.046;6.772;2023-04-15T11:35:31;14.80;91.70
5508;DHT22;2776;51.046;6.772;2023-04-15T11:38:02;14.70;93.30
5508;DHT22;2776;51.046;6.772;2023-04-15T11:40:30;14.60;93.00
5508;DHT22;2776;51.046;6.772;2023-04-15T11:43:04;14.70;94.00
5508;DHT22;2776;51.046;6.772;2023-04-15T11:45:31;14.30;93.40
5508;DHT22;2776;51.046;6.772;2023-04-15T11:48:08;14.20;94.40
5508;DHT22;2776;51.046;6.772;2023-04-15T11:50:37;14.10;96.00
5508;DHT22;2776;51.046;6.772;2023-04-15T11:53:08;13.90;97.50
5508;DHT22;2776;51.046;6.772;2023-04-15T11:55:42;13.80;98.20
5508;DHT22;2776;51.046;6.772;2023-04-15T11:58:12;13.60;99.90
5508;DHT22;2776;51.046;6.772;2023-04-15T12:00:40;13.70;99.90
5508;DHT22;2776;51.046;6.772;2023-04-15T12:03:16;13.60;99.90
5508;DHT22;2776;51.046;6.772;2023-04-15T12:06:01;13.90;99.90
5508;DHT22;2776;51.046;6.772;2023-04-15T12:08:48;13.90;99.90
5508;DHT22;2776;51.046;6.772;2023-04-15T12:11:15;14.20;99.90
5508;DHT22;2776;51.046;6.772;2023-04-15T12:13:42;14.30;99.90
5508;DHT22;2776;51.046;6.772;2023-04-15T12:16:09;14.50;99.90
5508;DHT22;2776;51.046;6.772;2023-04-15T12:18:37;14.70;99.90
5508;DHT22;2776;51.046;6.772;2023-04-15T12:21:08;14.50;99.90
5508;DHT22;2776;51.046;6.772;2023-04-15T12:23:36;14.40;99.90
5508;DHT22;2776;51.046;6.772;2023-04-15T12:26:05;14.20;99.90
5508;DHT22;2776;51.046;6.772;2023-04-15T12:28:33;14.10;99.90
5508;DHT22;2776;51.046;6.772;2023-04-15T12:31:06;14.00;99.90
5508;DHT22;2776;51.046;6.772;2023-04-15T12:33:33;14.00;99.90
5508;DHT22;2776;51.046;6.772;2023-04-15T12:36:00;14.00;99.90
5508;DHT22;2776;51.046;6.772;2023-04-15T12:38:27;14.00;99.90
5508;DHT22;2776;51.046;6.772;2023-04-15T12:40:54;13.90;99.90
5508;DHT22;2776;51.046;6.772;2023-04-15T12:43:22;14.00;99.90
5508;DHT22;2776;51.046;6.772;2023-04-15T12:45:49;13.80;99.90
5508;DHT22;2776;51.046;6.772;2023-04-15T12:48:16;13.70;99.90
5508;DHT22;2776;51.046;6.772;2023-04-15T12:50:42;13.60;99.90
5508;DHT22;2776;51.046;6.772;2023-04-15T12:53:09;13.40;99.90
5508;DHT22;2776;51.046;6.772;2023-04-15T12:55:36;13.40;99.90
5508;DHT22;2776;51.046;6.772;2023-04-15T12:58:02;13.30;99.90
5508;DHT22;2776;51.046;6.772;2023-04-15T13:00:33;13.20;99.90
5508;DHT22;2776;51.046;6.772;2023-04-15T13:03:00;13.20;99.90
5508;DHT22;2776;51.046;6.772;2023-04-15T13:05:26;13.10;99.90
5508;DHT22;2776;51.046;6.772;2023-04-15T13:07:53;13.10;99.90
5508;DHT22;2776;51.046;6.772;2023-04-15T13:10:21;13.10;99.90
5508;DHT22;2776;51.046;6.772;2023-04-15T13:12:48;13.10;99.90
5508;DHT22;2776;51.046;6.772;2023-04-15T13:15:17;13.10;99.90
5508;DHT22;2776;51.046;6.772;2023-04-15T13:17:47;13.10;99.90
5508;DHT22;2776;51.046;6.772;2023-04-15T13:20:14;13.10;99.90
5508;DHT22;2776;51.046;6.772;2023-04-15T13:22:41;13.10;99.90
5508;DHT22;2776;51.046;6.772;2023-04-15T13:25:08;13.00;99.90
5508;DHT22;2776;51.046;6.772;2023-04-15T13:27:36;13.00;99.90
5508;DHT22;2776;51.046;6.772;2023-04-15T13:30:03;13.00;99.90
5508;DHT22;2776;51.046;6.772;2023-04-15T13:32:30;13.00;99.90
5508;DHT22;2776;51.046;6.772;2023-04-15T13:34:58;12.90;99.90
5508;DHT22;2776;51.046;6.772;2023-04-15T13:37:25;12.80;99.90
5508;DHT22;2776;51.046;6.772;2023-04-15T13:39:52;12.80;99.90
5508;DHT22;2776;51.046;6.772;2023-04-15T13:42:19;12.70;99.90
5508;DHT22;2776;51.046;6.772;2023-04-15T13:44:46;12.70;99.90
5508;DHT22;2776;51.046;6.772;2023-04-15T13:47:13;12.60;99.90
5508;DHT22;2776;51.046;6.772;2023-04-15T13:49:40;12.60;99.90
5508;DHT22;2776;51.046;6.772;2023-04-15T13:52:08;12.50;99.90
5508;DHT22;2776;51.046;6.772;2023-04-15T13:54:35;12.50;99.90
5508;DHT22;2776;51.046;6.772;2023-04-15T13:57:02;12.60;99.90
5508;DHT22;2776;51.046;6.772;2023-04-15T13:59:29;12.60;99.90
5508;DHT22;2776;51.046;6.772;2023-04-15T14:01:55;12.60;99.90
5508;DHT22;2776;51.046;6.772;2023-04-15T14:04:22;12.60;99.90
5508;DHT22;2776;51.046;6.772;2023-04-15T14:06:49;12.50;99.90
5508;DHT22;2776;51.046;6.772;2023-04-15T14:09:18;12.60;99.90
5508;DHT22;2776;51.046;6.772;2023-04-15T14:11:46;12.60;99.90
5508;DHT22;2776;51.046;6.772;2023-04-15T14:14:13;12.50;99.90
5508;DHT22;2776;51.046;6.772;2023-04-15T14:16:40;12.50;99.90
5508;DHT22;2776;51.046;6.772;2023-04-15T14:19:06;12.60;99.90
5508;DHT22;2776;51.046;6.772;2023-04-15T14:21:33;12.50;99.90
5508;DHT22;2776;51.046;6.772;2023-04-15T14:24:00;12.40;99.90
5508;DHT22;2776;51.046;6.772;2023-04-15T14:26:28;12.20;99.90
5508;DHT22;2776;51.046;6.772;2023-04-15T14:28:55;12.20;99.90
5508;DHT22;2776;51.046;6.772;2023-04-15T14:31:22;12.20;99.90
5508;DHT22;2776;51.046;6.772;2023-04-15T14:33:48;12.30;99.90
5508;DHT22;2776;51.046;6.772;2023-04-15T14:36:15;12.30;99.90
5508;DHT22;2776;51.046;6.772;2023-04-15T14:38:42;12.50;99.90
5508;DHT22;2776;51.046;6.772;2023-04-15T14:41:09;12.70;99.90
5508;DHT22;2776;51.046;6.772;2023-04-15T14:43:38;12.80;99.90
5508;DHT22;2776;51.046;6.772;2023-04-15T14:46:05;13.00;99.90
5508;DHT22;2776;51.046;6.772;2023-04-15T14:48:32;13.10;99.90
5508;DHT22;2776;51.046;6.772;2023-04-15T14:50:59;13.40;99.90
5508;DHT22;2776;51.046;6.772;2023-04-15T14:53:26;13.40;99.90
5508;DHT22;2776;51.046;6.772;2023-04-15T14:55:53;13.30;99.90
5508;DHT22;2776;51.046;6.772;2023-04-15T14:58:20;13.40;99.90
5508;DHT22;2776;51.046;6.772;2023-04-15T15:00:48;13.30;99.90
5508;DHT22;2776;51.046;6.772;2023-04-15T15:03:15;13.10;99.90
5508;DHT22;2776;51.046;6.772;2023-04-15T15:05:44;12.90;99.90
5508;DHT22;2776;51.046;6.772;2023-04-15T15:08:12;12.80;99.90
5508;DHT22;2776;51.046;6.772;2023-04-15T15:10:39;12.90;99.90
5508;DHT22;2776;51.046;6.772;2023-04-15T15:13:07;12.80;99.90
5508;DHT22;2776;51.046;6.772;2023-04-15T15:15:35;12.70;99.90
5508;DHT22;2776;51.046;6.772;2023-04-15T15:18:04;12.60;99.90
5508;DHT22;2776;51.046;6.772;2023-04-15T15:20:31;12.40;99.90
5508;DHT22;2776;51.046;6.772;2023-04-15T15:22:58;12.40;99.90
5508;DHT22;2776;51.046;6.772;2023-04-15T15:25:25;12.40;99.90
5508;DHT22;2776;51.046;6.772;2023-04-15T15:27:52;12.50;99.90
5508;DHT22;2776;51.046;6.772;2023-04-15T15:30:19;12.50;99.90
5508;DHT22;2776;51.046;6.772;2023-04-15T15:32:45;12.50;99.90
5508;DHT22;2776;51.046;6.772;2023-04-15T15:35:14;12.60;99.90
5508;DHT22;2776;51.046;6.772;2023-04-15T15:37:41;12.60;99.90
5508;DHT22;2776;51.046;6.772;2023-04-15T15:40:08;12.60;99.90
5508;DHT22;2776;51.046;6.772;2023-04-15T15:42:36;12.60;99.90
5508;DHT22;2776;51.046;6.772;2023-04-15T15:45:04;12.60;99.90
5508;DHT22;2776;51.046;6.772;2023-04-15T15:47:31;12.50;99.90
5508;DHT22;2776;51.046;6.772;2023-04-15T15:49:59;12.50;99.90
5508;DHT22;2776;51.046;6.772;2023-04-15T15:52:27;12.30;99.90
5508;DHT22;2776;51.046;6.772;2023-04-15T15:54:53;12.30;99.90
5508;DHT22;2776;51.046;6.772;2023-04-15T15:57:20;12.30;99.90
5508;DHT22;2776;51.046;6.772;2023-04-15T15:59:47;12.20;99.90
5508;DHT22;2776;51.046;6.772;2023-04-15T16:02:14;12.10;99.90
5508;DHT22;2776;51.046;6.772;2023-04-15T16:04:40;12.00;99.90
5508;DHT22;2776;51.046;6.772;2023-04-15T16:07:08;11.90;99.90
5508;DHT22;2776;51.046;6.772;2023-04-15T16:09:36;11.90;99.90
5508;DHT22;2776;51.046;6.772;2023-04-15T16:12:05;12.00;99.90